createdAt,value
2022-08-26T00:00:02.156Z,43.58
2022-08-26T00:01:02.199Z,51.83
2022-08-26T00:02:02.171Z,44.51
2022-08-26T00:03:02.146Z,54.48
2022-08-26T00:04:02.193Z,46.13
2022-08-26T00:05:02.164Z,44.63
2022-08-26T00:06:02.104Z,50.38
2022-08-26T00:07:02.100Z,48.48
2022-08-26T00:08:02.091Z,44.23
2022-08-26T00:09:02.149Z,48.94
2022-08-26T00:10:02.149Z,47.99
2022-08-26T00:11:02.112Z,53.70
2022-08-26T00:12:02.063Z,50.93
2022-08-26T00:13:02.037Z,49.52
2022-08-26T00:14:02.048Z,60.66
2022-08-26T00:15:02.120Z,52.67
2022-08-26T00:16:02.042Z,43.47
2022-08-26T00:17:02.057Z,43.70
2022-08-26T00:18:01.987Z,53.47
2022-08-26T00:19:02.074Z,44.17
2022-08-26T00:20:01.999Z,44.18
2022-08-26T00:21:06.081Z,48.89
2022-08-26T00:22:01.996Z,50.11
2022-08-26T00:23:02.031Z,48.73
2022-08-26T00:24:01.988Z,49.53
2022-08-26T00:25:01.995Z,47.74
2022-08-26T00:26:01.939Z,60.77
2022-08-26T00:27:01.996Z,54.79
2022-08-26T00:28:02.009Z,44.31
2022-08-26T00:29:01.987Z,55.57
2022-08-26T00:30:01.925Z,48.81
2022-08-26T00:31:01.925Z,44.48
2022-08-26T00:32:01.925Z,43.07
2022-08-26T00:33:01.901Z,48.73
2022-08-26T00:34:01.887Z,49.09
2022-08-26T00:35:01.906Z,43.74
2022-08-26T00:36:01.867Z,43.60
2022-08-26T00:37:01.900Z,52.96
2022-08-26T00:38:01.875Z,49.70
2022-08-26T00:39:01.952Z,50.09
2022-08-26T00:40:05.246Z,47.31
2022-08-26T00:41:01.854Z,43.34
2022-08-26T00:42:01.830Z,49.52
2022-08-26T00:43:01.885Z,52.94
2022-08-26T00:44:01.813Z,57.21
2022-08-26T00:45:01.823Z,46.98
2022-08-26T00:46:02.407Z,43.95
2022-08-26T00:47:02.855Z,45.12
2022-08-26T00:48:01.830Z,54.22
2022-08-26T00:49:01.767Z,54.73
2022-08-26T00:50:01.786Z,47.77
2022-08-26T00:51:01.810Z,50.18
2022-08-26T00:52:01.792Z,48.55
2022-08-26T00:53:01.817Z,44.59
2022-08-26T00:54:01.769Z,49.80
2022-08-26T00:55:01.716Z,45.43
2022-08-26T00:56:01.695Z,55.09
2022-08-26T00:57:01.726Z,44.81
2022-08-26T00:58:01.695Z,44.77
2022-08-26T00:59:01.699Z,52.48
2022-08-26T01:00:01.721Z,57.23
2022-08-26T01:01:01.753Z,50.90
2022-08-26T01:02:02.718Z,61.97
2022-08-26T01:03:01.746Z,49.84
2022-08-26T01:04:01.644Z,52.32
2022-08-26T01:05:01.662Z,56.09
2022-08-26T01:06:01.651Z,66.10
2022-08-26T01:07:01.664Z,54.33
2022-08-26T01:08:01.639Z,50.05
2022-08-26T01:09:01.646Z,49.46
2022-08-26T01:10:01.647Z,50.71
2022-08-26T01:11:01.627Z,51.52
2022-08-26T01:12:01.698Z,47.89
2022-08-26T01:13:01.675Z,54.97
2022-08-26T01:14:01.600Z,50.25
2022-08-26T01:15:01.962Z,46.36
2022-08-26T01:16:01.599Z,49.38
2022-08-26T01:17:01.587Z,54.02
2022-08-26T01:18:01.583Z,48.72
2022-08-26T01:19:01.585Z,50.13
2022-08-26T01:20:01.582Z,49.54
2022-08-26T01:21:01.593Z,48.29
2022-08-26T01:22:01.569Z,49.69
2022-08-26T01:23:03.248Z,45.34
2022-08-26T01:24:01.548Z,44.63
2022-08-26T01:25:03.569Z,44.80
2022-08-26T01:26:01.529Z,49.40
2022-08-26T01:27:01.469Z,46.08
2022-08-26T01:28:01.518Z,49.86
2022-08-26T01:29:01.511Z,44.78
2022-08-26T01:30:01.477Z,43.70
2022-08-26T01:31:01.457Z,44.21
2022-08-26T01:32:01.478Z,44.31
2022-08-26T01:33:01.607Z,44.70
2022-08-26T01:34:01.480Z,49.69
2022-08-26T01:35:01.456Z,45.64
2022-08-26T01:36:01.564Z,53.53
2022-08-26T01:37:01.491Z,49.89
2022-08-26T01:38:02.335Z,54.29
2022-08-26T01:39:01.453Z,49.37
2022-08-26T01:40:01.480Z,44.43
2022-08-26T01:41:01.386Z,44.80
2022-08-26T01:42:02.998Z,49.20
2022-08-26T01:43:02.368Z,48.58
2022-08-26T01:44:01.391Z,51.51
2022-08-26T01:45:01.366Z,49.07
2022-08-26T02:02:41.297Z,44.86
2022-08-26T02:03:42.321Z,44.61
2022-08-26T02:04:41.373Z,44.49
2022-08-26T02:05:41.320Z,49.93
2022-08-26T02:06:41.333Z,46.33
2022-08-26T02:07:41.363Z,51.26
2022-08-26T02:08:41.287Z,44.94
2022-08-26T02:09:41.679Z,52.66
2022-08-26T02:10:41.315Z,45.88
2022-08-26T02:11:41.266Z,43.95
2022-08-26T02:12:41.289Z,50.53
2022-08-26T02:13:41.261Z,44.40
2022-08-26T02:14:43.564Z,47.21
2022-08-26T02:15:41.270Z,52.85
2022-08-26T02:16:42.289Z,45.38
2022-08-26T02:17:41.258Z,50.36
2022-08-26T02:18:41.252Z,54.06
2022-08-26T02:19:41.250Z,44.49
2022-08-26T02:20:41.253Z,44.15
2022-08-26T02:21:41.274Z,44.45
2022-08-26T02:22:41.929Z,58.73
2022-08-26T02:23:42.095Z,44.58
2022-08-26T02:25:13.989Z,50.78
2022-08-26T02:25:41.208Z,55.01
2022-08-26T02:26:41.171Z,45.32
2022-08-26T02:27:41.152Z,48.21
2022-08-26T02:28:42.080Z,47.74
2022-08-26T02:29:41.116Z,49.89
2022-08-26T02:30:41.169Z,49.25
2022-08-26T02:31:41.245Z,45.50
2022-08-26T02:32:41.379Z,50.46
2022-08-26T02:33:43.108Z,54.04
2022-08-26T02:34:41.116Z,49.28
2022-08-26T02:35:41.112Z,55.80
2022-08-26T02:36:41.100Z,47.39
2022-08-26T02:37:41.903Z,47.42
2022-08-26T02:38:41.043Z,45.84
2022-08-26T02:39:41.110Z,53.61
2022-08-26T02:40:41.983Z,53.78
2022-08-26T02:41:44.805Z,50.15
2022-08-26T02:42:41.991Z,56.79
2022-08-26T02:43:41.154Z,54.05
2022-08-26T02:44:41.104Z,50.73
2022-08-26T02:45:42.501Z,50.38
2022-08-26T02:46:41.684Z,47.72
2022-08-26T02:47:42.624Z,56.39
2022-08-26T02:48:41.005Z,52.70
2022-08-26T02:49:41.057Z,50.03
2022-08-26T02:50:41.017Z,46.74
2022-08-26T02:51:41.043Z,50.96
2022-08-26T02:52:40.991Z,47.60
2022-08-26T02:53:41.032Z,45.56
2022-08-26T02:54:40.971Z,61.35
2022-08-26T02:55:40.986Z,54.76
2022-08-26T02:56:41.003Z,51.47
2022-08-26T02:57:40.980Z,52.73
2022-08-26T02:58:40.993Z,53.66
2022-08-26T02:59:41.073Z,56.06
2022-08-26T03:00:53.093Z,53.94
2022-08-26T03:01:42.065Z,55.14
2022-08-26T03:02:40.899Z,53.49
2022-08-26T03:03:40.961Z,47.04
2022-08-26T03:04:40.927Z,59.95
2022-08-26T03:05:41.856Z,51.67
2022-08-26T03:06:41.529Z,48.21
2022-08-26T03:07:41.713Z,57.46
2022-08-26T03:08:40.912Z,56.76
2022-08-26T03:09:40.864Z,55.28
2022-08-26T03:10:40.883Z,64.57
2022-08-26T03:11:40.881Z,62.64
2022-08-26T03:12:40.874Z,53.34
2022-08-26T03:13:40.879Z,55.12
2022-08-26T03:14:40.828Z,57.64
2022-08-26T03:15:40.829Z,61.49
2022-08-26T03:16:40.808Z,55.81
2022-08-26T03:17:40.772Z,50.32
2022-08-26T03:18:40.782Z,54.62
2022-08-26T03:19:40.742Z,48.75
2022-08-26T03:20:40.767Z,57.39
2022-08-26T03:21:40.789Z,50.39
2022-08-26T03:22:40.747Z,57.99
2022-08-26T03:23:40.735Z,58.71
2022-08-26T03:24:40.753Z,55.26
2022-08-26T03:25:41.635Z,61.77
2022-08-26T03:26:40.726Z,61.89
2022-08-26T03:27:41.746Z,46.04
2022-08-26T03:28:40.765Z,50.78
2022-08-26T03:29:45.417Z,66.16
2022-08-26T03:30:45.464Z,64.23
2022-08-26T03:31:41.743Z,60.47
2022-08-26T03:32:41.365Z,57.14
2022-08-26T03:33:40.731Z,61.73
2022-08-26T03:34:40.681Z,53.60
2022-08-26T03:35:40.736Z,63.95
2022-08-26T03:36:41.687Z,61.96
2022-08-26T03:37:40.626Z,57.43
2022-08-26T03:38:40.627Z,59.24
2022-08-26T03:39:40.698Z,61.33
2022-08-26T03:40:40.606Z,60.89
2022-08-26T03:41:40.621Z,62.32
2022-08-26T03:42:40.588Z,56.91
2022-08-26T03:43:40.560Z,56.70
2022-08-26T03:44:42.088Z,66.76
2022-08-26T03:45:40.547Z,64.35
2022-08-26T03:46:40.618Z,60.92
2022-08-26T04:03:37.261Z,56.67
2022-08-26T04:04:38.462Z,60.16
2022-08-26T04:05:39.463Z,54.70
2022-08-26T04:06:38.388Z,52.45
2022-08-26T04:07:38.384Z,63.06
2022-08-26T04:08:38.366Z,59.02
2022-08-26T04:09:38.457Z,65.85
2022-08-26T04:10:38.402Z,68.59
2022-08-26T04:11:38.938Z,62.78
2022-08-26T04:12:38.409Z,60.48
2022-08-26T04:13:38.370Z,66.46
2022-08-26T04:14:38.447Z,59.63
2022-08-26T04:15:38.348Z,65.32
2022-08-26T04:16:38.325Z,57.65
2022-08-26T04:17:38.320Z,62.95
2022-08-26T04:18:38.362Z,55.43
2022-08-26T04:19:39.338Z,64.75
2022-08-26T04:20:38.327Z,54.64
2022-08-26T04:21:38.273Z,64.69
2022-08-26T04:22:38.312Z,66.87
2022-08-26T04:23:47.092Z,60.91
2022-08-26T04:24:40.362Z,68.78
2022-08-26T04:25:38.268Z,59.19
2022-08-26T04:26:39.515Z,66.13
2022-08-26T04:27:38.993Z,63.10
2022-08-26T04:28:38.382Z,61.99
2022-08-26T04:29:38.237Z,66.96
2022-08-26T04:30:38.232Z,67.26
2022-08-26T04:31:38.229Z,60.65
2022-08-26T04:32:38.248Z,68.03
2022-08-26T04:33:41.738Z,64.56
2022-08-26T04:34:38.174Z,65.38
2022-08-26T04:35:38.170Z,65.89
2022-08-26T04:36:39.222Z,65.32
2022-08-26T04:37:38.208Z,61.56
2022-08-26T04:38:38.147Z,69.33
2022-08-26T04:39:38.144Z,67.41
2022-08-26T04:40:38.141Z,64.11
2022-08-26T04:41:38.180Z,68.23
2022-08-26T04:42:38.123Z,69.44
2022-08-26T04:43:38.105Z,66.34
2022-08-26T04:44:38.135Z,66.14
2022-08-26T04:45:38.240Z,55.07
2022-08-26T04:46:39.960Z,64.36
2022-08-26T04:47:39.087Z,66.30
2022-08-26T04:48:38.045Z,59.82
2022-08-26T04:49:38.057Z,72.22
2022-08-26T04:50:38.066Z,63.33
2022-08-26T04:51:39.508Z,69.58
2022-08-26T04:52:38.033Z,62.52
2022-08-26T04:53:38.053Z,64.93
2022-08-26T04:54:43.109Z,62.65
2022-08-26T04:55:38.388Z,67.23
2022-08-26T04:56:38.063Z,64.16
2022-08-26T04:57:38.175Z,66.54
2022-08-26T04:58:38.033Z,60.65
2022-08-26T04:59:39.573Z,65.47
2022-08-26T05:00:39.002Z,67.05
2022-08-26T05:01:39.507Z,61.20
2022-08-26T05:02:37.962Z,68.44
2022-08-26T05:03:37.997Z,64.55
2022-08-26T05:04:37.979Z,66.02
2022-08-26T05:05:37.963Z,66.56
2022-08-26T05:06:37.926Z,69.90
2022-08-26T05:07:37.936Z,65.24
2022-08-26T05:08:37.932Z,60.79
2022-08-26T05:09:37.914Z,65.14
2022-08-26T05:10:38.581Z,63.87
2022-08-26T05:11:38.008Z,68.98
2022-08-26T05:12:38.506Z,67.27
2022-08-26T05:13:37.886Z,62.74
2022-08-26T05:14:37.866Z,69.18
2022-08-26T05:15:37.951Z,67.56
2022-08-26T05:16:40.391Z,67.68
2022-08-26T05:17:37.895Z,63.31
2022-08-26T05:18:37.901Z,61.85
2022-08-26T05:19:38.628Z,68.04
2022-08-26T05:20:38.793Z,60.87
2022-08-26T05:21:37.827Z,69.49
2022-08-26T05:22:38.539Z,63.03
2022-08-26T05:23:37.831Z,66.91
2022-08-26T05:24:37.818Z,61.97
2022-08-26T05:25:38.624Z,65.70
2022-08-26T05:26:38.772Z,64.97
2022-08-26T05:27:37.790Z,68.55
2022-08-26T05:28:37.758Z,60.08
2022-08-26T05:29:37.874Z,67.07
2022-08-26T05:30:38.668Z,66.57
2022-08-26T05:31:38.333Z,69.23
2022-08-26T05:32:37.763Z,62.43
2022-08-26T05:33:37.748Z,66.18
2022-08-26T05:34:38.114Z,70.58
2022-08-26T05:35:37.775Z,67.55
2022-08-26T05:36:38.018Z,66.08
2022-08-26T05:37:38.607Z,62.72
2022-08-26T05:38:37.802Z,64.99
2022-08-26T05:39:37.741Z,68.99
2022-08-26T05:40:37.857Z,62.66
2022-08-26T05:41:38.381Z,60.95
2022-08-26T05:42:37.684Z,65.50
2022-08-26T05:43:37.776Z,62.04
2022-08-26T05:44:55.750Z,58.96
2022-08-26T05:45:41.242Z,71.54
2022-08-26T05:46:38.702Z,65.12
2022-08-26T05:47:37.813Z,63.95
2022-08-26T05:48:37.690Z,66.27
2022-08-26T05:49:43.740Z,70.52
2022-08-26T05:50:39.426Z,67.18
2022-08-26T05:51:37.695Z,64.65
2022-08-26T05:52:37.738Z,64.20
2022-08-26T05:53:40.420Z,59.78
2022-08-26T05:54:38.088Z,61.04
2022-08-26T05:55:38.461Z,68.21
2022-08-26T05:56:38.446Z,61.67
2022-08-26T05:57:42.863Z,67.36
2022-08-26T05:58:40.419Z,65.85
2022-08-26T05:59:38.598Z,68.09
2022-08-26T06:00:37.512Z,65.55
2022-08-26T06:01:37.560Z,65.74
2022-08-26T06:02:37.582Z,69.34
2022-08-26T06:03:37.497Z,60.14
2022-08-26T06:04:37.516Z,65.94
2022-08-26T06:05:39.186Z,64.01
2022-08-26T06:06:38.471Z,65.16
2022-08-26T06:07:37.484Z,62.72
2022-08-26T06:08:37.464Z,67.51
2022-08-26T06:09:37.495Z,63.37
2022-08-26T06:10:37.437Z,66.25
2022-08-26T06:11:37.449Z,64.85
2022-08-26T06:12:38.842Z,58.37
2022-08-26T06:13:38.428Z,69.89
2022-08-26T06:14:37.470Z,62.08
2022-08-26T06:15:37.454Z,62.82
2022-08-26T06:16:37.591Z,68.22
2022-08-26T06:17:37.447Z,65.21
2022-08-26T06:18:37.432Z,55.77
2022-08-26T06:19:37.407Z,65.52
2022-08-26T06:20:37.392Z,62.71
2022-08-26T06:21:38.065Z,62.42
2022-08-26T06:22:37.581Z,54.80
2022-08-26T06:23:37.337Z,68.75
2022-08-26T06:24:37.360Z,71.55
2022-08-26T06:25:37.367Z,59.95
2022-08-26T06:26:39.499Z,64.43
2022-08-26T06:27:37.721Z,65.56
2022-08-26T06:28:37.339Z,66.37
2022-08-26T06:29:37.560Z,64.73
2022-08-26T06:30:37.356Z,60.66
2022-08-26T06:31:37.285Z,65.52
2022-08-26T06:32:38.309Z,56.86
2022-08-26T06:33:37.325Z,58.98
2022-08-26T06:34:37.307Z,66.02
2022-08-26T06:35:37.257Z,58.92
2022-08-26T06:36:37.244Z,56.08
2022-08-26T06:37:37.315Z,62.91
2022-08-26T06:38:37.245Z,66.27
2022-08-26T06:39:41.101Z,65.35
2022-08-26T06:40:37.206Z,68.31
2022-08-26T06:41:41.327Z,67.74
2022-08-26T06:42:39.202Z,60.91
2022-08-26T06:43:37.184Z,63.19
2022-08-26T06:44:37.190Z,64.76
2022-08-26T06:45:37.163Z,63.44
2022-08-26T06:46:37.237Z,65.63
2022-08-26T06:47:37.217Z,69.73
2022-08-26T06:48:37.167Z,68.99
2022-08-26T06:49:38.049Z,68.19
2022-08-26T06:50:37.193Z,61.31
2022-08-26T06:51:37.148Z,68.68
2022-08-26T06:52:37.330Z,59.16
2022-08-26T06:53:37.221Z,70.26
2022-08-26T06:54:37.197Z,60.72
2022-08-26T06:55:37.162Z,66.90
2022-08-26T06:56:37.132Z,64.26
2022-08-26T06:57:37.783Z,63.15
2022-08-26T06:58:37.114Z,64.87
2022-08-26T06:59:37.942Z,59.68
2022-08-26T07:00:37.575Z,67.11
2022-08-26T07:01:37.960Z,65.14
2022-08-26T07:02:38.026Z,64.81
2022-08-26T07:03:39.568Z,63.72
2022-08-26T07:04:37.036Z,69.21
2022-08-26T07:05:37.038Z,67.07
2022-08-26T07:06:37.047Z,66.54
2022-08-26T07:07:37.008Z,63.42
2022-08-26T07:08:37.059Z,65.74
2022-08-26T07:09:37.042Z,63.22
2022-08-26T07:10:36.986Z,66.32
2022-08-26T07:11:37.027Z,65.25
2022-08-26T07:12:37.156Z,68.13
2022-08-26T07:13:37.673Z,65.89
2022-08-26T07:14:37.584Z,66.28
2022-08-26T07:15:36.981Z,69.31
2022-08-26T07:16:37.588Z,58.73
2022-08-26T07:17:36.925Z,61.03
2022-08-26T07:18:36.942Z,61.86
2022-08-26T07:19:36.926Z,60.41
2022-08-26T07:20:36.986Z,68.08
2022-08-26T07:21:36.961Z,61.04
2022-08-26T07:22:36.907Z,64.43
2022-08-26T07:23:36.911Z,65.52
2022-08-26T07:24:36.888Z,66.57
2022-08-26T07:25:36.924Z,65.96
2022-08-26T07:26:36.893Z,63.32
2022-08-26T07:27:37.649Z,62.18
2022-08-26T07:28:38.342Z,63.29
2022-08-26T07:29:36.940Z,62.87
2022-08-26T07:30:36.940Z,66.92
2022-08-26T07:31:39.375Z,63.48
2022-08-26T07:32:39.484Z,67.20
2022-08-26T07:33:36.826Z,62.90
2022-08-26T07:34:36.820Z,64.43
2022-08-26T07:35:36.825Z,64.22
2022-08-26T07:36:36.870Z,67.19
2022-08-26T07:37:39.124Z,65.35
2022-08-26T07:38:36.831Z,65.20
2022-08-26T07:39:37.452Z,61.74
2022-08-26T07:40:36.787Z,68.00
2022-08-26T07:41:36.771Z,67.49
2022-08-26T07:42:36.760Z,67.52
2022-08-26T07:43:36.738Z,65.59
2022-08-26T07:44:36.713Z,63.04
2022-08-26T07:45:37.119Z,66.10
2022-08-26T07:46:36.698Z,64.78
2022-08-26T07:47:36.729Z,64.50
2022-08-26T07:48:36.832Z,66.69
2022-08-26T07:49:37.613Z,67.00
2022-08-26T07:50:48.841Z,61.38
2022-08-26T07:51:37.745Z,68.65
2022-08-26T07:52:36.705Z,61.37
2022-08-26T07:53:36.678Z,61.68
2022-08-26T07:54:36.662Z,64.59
2022-08-26T07:55:36.713Z,67.50
2022-08-26T07:56:36.641Z,59.61
2022-08-26T07:57:36.647Z,60.91
2022-08-26T07:58:36.668Z,65.17
2022-08-26T07:59:36.714Z,64.16
2022-08-26T08:00:36.667Z,64.52
2022-08-26T08:01:37.402Z,65.96
2022-08-26T08:02:37.457Z,63.02
2022-08-26T08:03:36.720Z,63.39
2022-08-26T08:04:36.715Z,64.31
2022-08-26T08:05:36.650Z,59.50
2022-08-26T08:06:36.640Z,62.69
2022-08-26T08:07:44.207Z,58.34
2022-08-26T08:08:37.693Z,64.60
2022-08-26T08:09:36.611Z,64.15
2022-08-26T08:10:36.599Z,62.64
2022-08-26T08:11:36.568Z,67.14
2022-08-26T08:12:36.601Z,70.59
2022-08-26T08:13:36.556Z,66.45
2022-08-26T08:14:36.638Z,69.72
2022-08-26T08:15:36.508Z,66.88
2022-08-26T08:16:40.173Z,61.70
2022-08-26T08:17:38.492Z,66.84
2022-08-26T08:18:37.046Z,66.08
2022-08-26T08:19:39.028Z,65.01
2022-08-26T08:20:36.482Z,60.91
2022-08-26T08:21:36.481Z,63.74
2022-08-26T08:22:36.443Z,65.52
2022-08-26T08:23:36.421Z,65.88
2022-08-26T08:25:10.557Z,64.26
2022-08-26T08:28:12.843Z,64.18
2022-08-26T08:31:56.859Z,64.93
2022-08-26T08:32:39.177Z,62.20
2022-08-26T08:33:37.850Z,62.78
2022-08-26T08:35:39.271Z,62.87
2022-08-26T08:36:39.489Z,65.25
2022-08-26T08:37:39.434Z,67.44
2022-08-26T08:38:39.196Z,65.24
2022-08-26T08:39:39.314Z,66.40
2022-08-26T08:40:40.573Z,60.76
2022-08-26T08:41:39.922Z,62.33
2022-08-26T08:42:40.765Z,67.39
2022-08-26T08:43:39.821Z,66.83
2022-08-26T08:44:39.903Z,64.91
2022-08-26T08:45:39.445Z,63.71
2022-08-26T08:46:39.326Z,64.07
2022-08-26T08:47:38.940Z,61.68
2022-08-26T08:48:39.354Z,67.58
2022-08-26T08:49:40.335Z,65.52
2022-08-26T08:50:39.894Z,64.09
2022-08-26T08:51:39.160Z,66.25
2022-08-26T08:52:39.346Z,65.79
2022-08-26T08:53:39.167Z,64.09
2022-08-26T08:54:39.831Z,67.06
2022-08-26T08:55:39.949Z,66.36
2022-08-26T08:56:39.297Z,66.97
2022-08-26T08:57:39.424Z,64.00
2022-08-26T08:58:39.181Z,66.30
2022-08-26T08:59:38.983Z,66.69
2022-08-26T09:00:40.078Z,59.92
2022-08-26T09:01:40.937Z,62.93
2022-08-26T09:02:39.095Z,61.21
2022-08-26T09:03:39.004Z,65.12
2022-08-26T09:04:39.734Z,63.15
2022-08-26T09:05:39.802Z,69.14
2022-08-26T09:06:39.065Z,66.42
2022-08-26T09:07:39.659Z,63.16
2022-08-26T09:08:39.043Z,63.42
2022-08-26T09:09:39.891Z,64.39
2022-08-26T09:10:38.956Z,64.74
2022-08-26T09:11:39.110Z,65.97
2022-08-26T09:12:39.070Z,59.76
2022-08-26T09:13:39.196Z,67.53
2022-08-26T09:14:39.027Z,60.27
2022-08-26T09:15:39.024Z,70.01
2022-08-26T09:16:39.153Z,66.65
2022-08-26T09:17:40.049Z,63.85
2022-08-26T09:19:11.031Z,62.40
2022-08-26T09:19:38.615Z,69.16
2022-08-26T09:20:38.663Z,60.87
2022-08-26T09:21:38.616Z,62.68
2022-08-26T09:22:38.593Z,65.84
2022-08-26T09:23:38.549Z,64.90
2022-08-26T09:24:41.866Z,64.06
2022-08-26T09:25:39.550Z,63.30
2022-08-26T09:26:38.575Z,64.12
2022-08-26T09:27:38.532Z,61.15
2022-08-26T09:28:38.553Z,62.27
2022-08-26T09:29:38.587Z,65.83
2022-08-26T09:30:38.602Z,65.22
2022-08-26T09:31:38.511Z,56.01
2022-08-26T09:32:38.507Z,66.84
2022-08-26T09:33:38.613Z,66.61
2022-08-26T09:34:38.534Z,65.79
2022-08-26T09:35:41.874Z,65.35
2022-08-26T09:36:41.052Z,72.69
2022-08-26T09:37:39.555Z,69.69
2022-08-26T09:38:38.487Z,67.55
2022-08-26T09:39:38.468Z,60.37
2022-08-26T09:40:38.518Z,68.64
2022-08-26T09:41:38.471Z,65.23
2022-08-26T09:42:38.449Z,61.34
2022-08-26T09:43:38.472Z,63.99
2022-08-26T09:44:38.457Z,65.47
2022-08-26T09:45:38.474Z,68.30
2022-08-26T09:47:38.420Z,56.38
2022-08-26T09:48:40.570Z,65.87
2022-08-26T09:49:38.419Z,64.78
2022-08-26T09:51:13.906Z,63.66
2022-08-26T09:51:44.979Z,63.39
2022-08-26T09:52:50.533Z,63.07
2022-08-26T09:53:38.901Z,61.56
2022-08-26T09:54:39.406Z,67.59
2022-08-26T09:55:39.060Z,66.01
2022-08-26T09:56:39.505Z,63.21
2022-08-26T09:57:43.085Z,66.30
2022-08-26T09:58:40.115Z,62.93
2022-08-26T09:59:39.845Z,64.79
2022-08-26T10:00:39.970Z,66.09
2022-08-26T10:01:40.316Z,66.32
2022-08-26T10:02:40.138Z,66.69
2022-08-26T10:03:40.483Z,64.02
2022-08-26T10:04:40.114Z,59.93
2022-08-26T10:05:39.210Z,65.01
2022-08-26T10:06:39.384Z,61.44
2022-08-26T10:07:40.602Z,63.96
2022-08-26T10:08:39.129Z,65.95
2022-08-26T10:09:39.354Z,67.09
2022-08-26T10:10:48.201Z,66.62
2022-08-26T10:11:41.557Z,69.53
2022-08-26T10:12:40.605Z,64.61
2022-08-26T10:13:40.283Z,64.83
2022-08-26T10:15:40.393Z,69.54
2022-08-26T10:16:40.387Z,63.58
2022-08-26T10:17:39.619Z,69.28
2022-08-26T10:18:39.384Z,67.95
2022-08-26T10:19:56.094Z,65.52
2022-08-26T10:20:41.027Z,60.06
2022-08-26T10:21:43.209Z,65.33
2022-08-26T10:22:46.413Z,68.18
2022-08-26T10:24:40.412Z,63.96
2022-08-26T10:25:39.607Z,64.28
2022-08-26T10:26:39.364Z,74.41
2022-08-26T10:27:40.490Z,67.98
2022-08-26T10:28:40.771Z,65.46
2022-08-26T10:29:38.725Z,66.83
2022-08-26T10:30:38.950Z,64.42
2022-08-26T10:31:40.657Z,63.00
2022-08-26T10:32:41.532Z,61.70
2022-08-26T10:33:39.414Z,66.89
2022-08-26T10:34:38.547Z,66.79
2022-08-26T10:35:38.519Z,67.12
2022-08-26T10:36:52.378Z,68.61
2022-08-26T10:37:41.557Z,59.72
2022-08-26T10:38:39.446Z,64.19
2022-08-26T10:39:39.422Z,70.32
2022-08-26T10:40:38.728Z,66.99
2022-08-26T10:41:39.361Z,68.45
2022-08-26T10:42:38.966Z,68.19
2022-08-26T10:43:40.990Z,63.88
2022-08-26T10:44:38.631Z,68.20
2022-08-26T10:45:39.465Z,65.37
2022-08-26T10:46:38.236Z,68.28
2022-08-26T10:47:38.436Z,67.10
2022-08-26T10:48:38.765Z,68.66
2022-08-26T10:49:38.968Z,65.31
2022-08-26T10:50:40.425Z,66.17
2022-08-26T10:51:39.479Z,68.57
2022-08-26T10:52:38.373Z,69.24
2022-08-26T10:53:39.466Z,62.84
2022-08-26T10:54:40.022Z,68.39
2022-08-26T10:55:38.482Z,68.54
2022-08-26T10:56:39.327Z,65.25
2022-08-26T10:57:38.955Z,67.25
2022-08-26T10:58:44.628Z,63.09
2022-08-26T10:59:40.872Z,68.65
2022-08-26T11:00:39.453Z,68.62
2022-08-26T11:01:40.810Z,68.23
2022-08-26T11:02:38.719Z,65.43
2022-08-26T11:03:38.497Z,63.24
2022-08-26T11:04:38.640Z,62.47
2022-08-26T11:05:43.400Z,67.04
2022-08-26T11:06:40.007Z,65.84
2022-08-26T11:07:39.929Z,64.90
2022-08-26T11:08:38.290Z,66.55
2022-08-26T11:09:40.007Z,69.67
2022-08-26T11:10:38.959Z,68.55
2022-08-26T11:11:40.445Z,65.13
2022-08-26T11:12:38.932Z,68.36
2022-08-26T11:13:41.577Z,67.69
2022-08-26T11:14:58.449Z,65.87
2022-08-26T11:15:40.334Z,62.35
2022-08-26T11:16:42.917Z,67.30
2022-08-26T11:17:39.523Z,68.96
2022-08-26T11:18:38.855Z,71.52
2022-08-26T11:19:59.643Z,66.96
2022-08-26T11:20:41.753Z,65.68
2022-08-26T11:21:38.537Z,66.63
2022-08-26T11:22:47.548Z,67.12
2022-08-26T11:23:40.348Z,67.35
2022-08-26T11:24:38.412Z,68.18
2022-08-26T11:25:38.409Z,64.77
2022-08-26T11:26:56.303Z,67.85
2022-08-26T11:27:39.815Z,63.09
2022-08-26T11:28:38.396Z,65.97
2022-08-26T11:29:39.025Z,67.29
2022-08-26T11:30:38.490Z,62.46
2022-08-26T11:31:37.862Z,67.54
2022-08-26T11:32:40.451Z,65.19
2022-08-26T11:33:39.181Z,65.97
2022-08-26T11:34:38.557Z,66.17
2022-08-26T11:35:38.439Z,62.19
2022-08-26T11:36:40.441Z,66.29
2022-08-26T11:37:40.622Z,69.66
2022-08-26T11:38:38.461Z,67.14
2022-08-26T11:39:38.658Z,62.11
2022-08-26T11:40:37.745Z,67.05
2022-08-26T11:41:37.689Z,59.44
2022-08-26T11:42:38.458Z,66.44
2022-08-26T11:43:39.008Z,69.88
2022-08-26T11:44:38.710Z,67.75
2022-08-26T11:45:38.535Z,65.27
2022-08-26T11:46:38.880Z,68.03
2022-08-26T11:47:38.301Z,66.71
2022-08-26T11:48:38.337Z,63.59
2022-08-26T11:49:38.571Z,65.91
2022-08-26T11:50:38.484Z,65.62
2022-08-26T11:51:40.408Z,65.44
2022-08-26T11:52:39.627Z,63.42
2022-08-26T11:53:37.642Z,64.96
2022-08-26T11:54:38.472Z,64.70
2022-08-26T11:55:37.670Z,68.25
2022-08-26T11:56:38.950Z,66.10
2022-08-26T11:57:38.282Z,62.86
2022-08-26T11:58:38.452Z,65.77
2022-08-26T11:59:38.479Z,66.59
2022-08-26T12:00:38.955Z,68.50
2022-08-26T12:01:39.455Z,67.87
2022-08-26T12:02:38.377Z,62.03
2022-08-26T12:03:39.099Z,66.81
2022-08-26T12:04:38.544Z,69.62
2022-08-26T12:05:39.477Z,64.72
2022-08-26T12:06:43.424Z,66.86
2022-08-26T12:07:42.541Z,61.31
2022-08-26T12:08:39.955Z,66.83
2022-08-26T12:09:41.316Z,66.95
2022-08-26T12:10:37.530Z,64.27
2022-08-26T12:11:37.550Z,64.76
2022-08-26T12:12:37.951Z,65.87
2022-08-26T12:13:38.199Z,66.07
2022-08-26T12:14:37.635Z,68.07
2022-08-26T12:15:37.589Z,67.09
2022-08-26T12:16:38.182Z,66.95
2022-08-26T12:17:37.972Z,68.09
2022-08-26T12:18:37.630Z,68.63
2022-08-26T12:19:37.520Z,66.23
2022-08-26T12:20:37.533Z,69.31
2022-08-26T12:21:38.935Z,64.21
2022-08-26T12:22:39.967Z,61.86
2022-08-26T12:23:39.095Z,64.11
2022-08-26T12:24:38.215Z,68.27
2022-08-26T12:25:37.471Z,66.39
2022-08-26T12:26:38.971Z,67.37
2022-08-26T12:27:39.012Z,63.32
2022-08-26T12:28:57.594Z,66.28
2022-08-26T12:30:12.353Z,65.23
2022-08-26T12:30:37.315Z,66.22
2022-08-26T12:31:37.976Z,66.64
2022-08-26T12:32:37.446Z,67.33
2022-08-26T12:33:38.252Z,65.37
2022-08-26T12:34:37.241Z,62.77
2022-08-26T12:35:37.269Z,53.59
2022-08-26T12:36:44.209Z,68.39
2022-08-26T12:37:38.208Z,64.94
2022-08-26T12:38:37.196Z,66.34
2022-08-26T12:39:39.197Z,67.96
2022-08-26T12:40:37.395Z,68.82
2022-08-26T12:41:37.284Z,65.22
2022-08-26T12:42:38.215Z,64.56
2022-08-26T12:43:37.218Z,65.89
2022-08-26T12:44:37.215Z,63.16
2022-08-26T12:45:37.331Z,65.30
2022-08-26T12:46:37.867Z,63.78
2022-08-26T12:47:43.368Z,64.59
2022-08-26T12:48:38.699Z,64.67
2022-08-26T12:49:37.152Z,65.99
2022-08-26T12:50:37.175Z,66.38
2022-08-26T12:51:37.142Z,67.27
2022-08-26T13:00:28.514Z,63.06
2022-08-26T13:01:24.322Z,62.80
2022-08-26T13:02:22.788Z,66.96
2022-08-26T13:03:22.772Z,60.86
2022-08-26T13:04:22.758Z,66.34
2022-08-26T13:05:24.548Z,65.95
2022-08-26T13:06:22.726Z,68.42
2022-08-26T13:07:22.732Z,66.59
2022-08-26T13:08:23.551Z,66.87
2022-08-26T13:09:24.551Z,66.72
2022-08-26T13:10:26.029Z,65.95
2022-08-26T13:11:22.661Z,62.46
2022-08-26T13:12:25.068Z,66.21
2022-08-26T13:13:22.760Z,61.89
2022-08-26T13:14:24.583Z,64.23
2022-08-26T13:15:22.750Z,68.96
2022-08-26T13:16:22.751Z,66.41
2022-08-26T13:17:22.700Z,65.78
2022-08-26T13:18:23.250Z,67.38
2022-08-26T13:19:23.154Z,66.18
2022-08-26T13:20:49.021Z,67.28
2022-08-26T13:21:22.534Z,66.94
2022-08-26T13:22:23.304Z,68.17
2022-08-26T13:23:22.506Z,60.09
2022-08-26T13:24:22.514Z,59.70
2022-08-26T13:25:22.642Z,69.32
2022-08-26T13:26:23.347Z,68.82
2022-08-26T13:27:23.383Z,63.77
2022-08-26T13:28:22.527Z,66.64
2022-08-26T13:29:22.737Z,63.91
2022-08-26T13:30:22.477Z,69.76
2022-08-26T13:31:22.481Z,68.43
2022-08-26T13:32:22.500Z,63.27
2022-08-26T13:33:22.490Z,67.55
2022-08-26T13:34:22.522Z,67.62
2022-08-26T13:35:23.635Z,68.57
2022-08-26T13:36:23.173Z,63.35
2022-08-26T13:37:22.462Z,63.28
2022-08-26T13:38:33.582Z,69.79
2022-08-26T13:39:23.451Z,65.09
2022-08-26T13:40:22.500Z,64.03
2022-08-26T13:41:28.915Z,59.91